Time;durP1;ratioP1;P1;durP2;ratioP2;P2;SDS_P1;SDS_P2;PMS_P1;PMS_P2;Temp;Humidity;BMP_temperature;BMP_pressure;BME280_temperature;BME280_humidity;BME280_pressure;Samples;Min_cycle;Max_cycle;Signal;HPM_P1;HPM_P2
2022/10/04 00:00:35;;;;;;;25.08;11.60;;;11.90;99.90;;;;;;5036903;28;20052;-66
2022/10/04 00:03:09;;;;;;;34.03;12.48;;;12.00;99.90;;;;;;5040167;28;20045;-67
2022/10/04 00:05:35;;;;;;;31.90;12.45;;;12.00;99.90;;;;;;5043024;28;20072;-66
2022/10/04 00:08:16;;;;;;;31.63;12.23;;;11.90;99.90;;;;;;5044274;28;20076;-66
2022/10/04 00:10:43;;;;;;;32.50;12.73;;;11.90;99.90;;;;;;5042796;28;20075;-66
2022/10/04 00:13:22;;;;;;;32.28;12.80;;;11.90;99.90;;;;;;5039980;28;20127;-66
2022/10/04 00:15:49;;;;;;;33.55;12.68;;;11.90;99.90;;;;;;5039631;28;20044;-66
2022/10/04 00:18:40;;;;;;;31.77;12.85;;;12.00;99.90;;;;;;5046599;28;20029;-65
2022/10/04 00:21:07;;;;;;;31.70;13.15;;;12.00;99.90;;;;;;5039984;28;20037;-65
2022/10/04 00:23:36;;;;;;;31.38;12.45;;;12.00;99.90;;;;;;5042255;28;20033;-65
2022/10/04 00:26:14;;;;;;;34.88;12.93;;;12.00;99.90;;;;;;5038437;28;20037;-65
2022/10/04 00:28:45;;;;;;;27.58;12.30;;;12.00;99.90;;;;;;5041349;28;20059;-66
2022/10/04 00:31:16;;;;;;;31.42;13.38;;;11.90;99.90;;;;;;5044556;28;20036;-66
2022/10/04 00:34:11;;;;;;;32.40;12.87;;;11.90;99.90;;;;;;5037092;28;20040;-66
2022/10/04 00:36:44;;;;;;;28.00;12.88;;;11.90;99.90;;;;;;5033581;28;20124;-66
2022/10/04 00:39:10;;;;;;;31.38;12.77;;;12.00;99.90;;;;;;5028543;28;20450;-66
2022/10/04 00:41:48;;;;;;;42.08;14.02;;;12.00;99.90;;;;;;5043172;28;20055;-66
2022/10/04 00:44:28;;;;;;;33.30;13.50;;;12.00;99.90;;;;;;5028070;28;20135;-66
2022/10/04 00:46:56;;;;;;;29.52;13.32;;;12.00;99.90;;;;;;5068636;28;20132;-66
2022/10/04 00:49:26;;;;;;;32.85;13.45;;;12.00;99.90;;;;;;5070291;28;20040;-66
2022/10/04 00:51:59;;;;;;;32.38;13.32;;;12.00;99.90;;;;;;5040412;28;20048;-66
2022/10/04 00:54:34;;;;;;;37.13;12.60;;;11.90;99.90;;;;;;5019742;28;20056;-66
2022/10/04 00:57:26;;;;;;;29.65;13.20;;;12.00;99.90;;;;;;5037302;28;20044;-66
2022/10/04 00:59:55;;;;;;;34.33;13.85;;;12.00;99.90;;;;;;5012608;28;20057;-66
2022/10/04 01:02:30;;;;;;;35.88;12.93;;;12.00;99.90;;;;;;5034446;28;20052;-66
2022/10/04 01:05:03;;;;;;;35.05;13.63;;;12.00;99.90;;;;;;5060595;28;20097;-67
2022/10/04 01:07:45;;;;;;;33.22;13.52;;;12.00;99.90;;;;;;5042035;28;20086;-66
2022/10/04 01:10:17;;;;;;;27.80;12.65;;;12.00;99.90;;;;;;5044528;28;20086;-66
2022/10/04 01:12:45;;;;;;;31.83;13.70;;;12.00;99.90;;;;;;5069638;28;20270;-66
2022/10/04 01:15:20;;;;;;;24.50;12.10;;;12.00;99.90;;;;;;5042477;28;20404;-67
2022/10/04 01:18:25;;;;;;;32.88;12.15;;;12.00;99.90;;;;;;5044983;28;20033;-67
2022/10/04 01:21:06;;;;;;;30.98;12.98;;;12.00;99.90;;;;;;5044123;28;20036;-67
2022/10/04 01:23:56;;;;;;;31.77;12.85;;;11.90;99.90;;;;;;5041193;28;20438;-67
2022/10/04 01:26:33;;;;;;;30.40;12.30;;;11.90;99.90;;;;;;5039386;28;20053;-66
2022/10/04 01:29:14;;;;;;;27.85;12.15;;;11.90;99.90;;;;;;5041578;28;20032;-67
2022/10/04 01:31:46;;;;;;;29.92;13.52;;;11.90;99.90;;;;;;5046189;28;20038;-67
2022/10/04 01:34:21;;;;;;;28.08;12.98;;;11.90;99.90;;;;;;5044399;28;20449;-67
2022/10/04 01:36:48;;;;;;;28.52;12.45;;;11.90;99.90;;;;;;5059948;28;20048;-68
2022/10/04 01:39:16;;;;;;;30.45;14.32;;;11.80;99.90;;;;;;5047116;28;21362;-67
2022/10/04 01:41:59;;;;;;;25.55;13.55;;;11.90;99.90;;;;;;5062070;28;20036;-67
2022/10/04 01:45:13;;;;;;;31.17;14.00;;;11.80;99.90;;;;;;5047121;28;20041;-67
2022/10/04 01:47:50;;;;;;;28.95;13.73;;;11.80;99.90;;;;;;5078730;28;20082;-67
2022/10/04 01:50:30;;;;;;;32.47;13.93;;;11.70;99.90;;;;;;5044358;28;20602;-67
2022/10/04 01:53:09;;;;;;;29.45;13.45;;;11.70;99.90;;;;;;5039626;28;20577;-66
2022/10/04 01:55:39;;;;;;;30.50;13.95;;;11.60;99.90;;;;;;5042733;28;20045;-66
2022/10/04 01:58:10;;;;;;;37.85;14.65;;;11.60;99.90;;;;;;5038380;28;20423;-66
2022/10/04 02:00:46;;;;;;;35.15;15.20;;;11.60;99.90;;;;;;5042150;28;20051;-66
2022/10/04 02:03:21;;;;;;;28.17;14.50;;;11.60;99.90;;;;;;5074855;28;20083;-66
2022/10/04 02:05:55;;;;;;;25.35;14.05;;;11.50;99.90;;;;;;5037148;28;20037;-66
2022/10/04 02:08:32;;;;;;;34.08;14.85;;;11.40;99.90;;;;;;5041687;28;20364;-67
2022/10/04 02:11:00;;;;;;;33.03;15.00;;;11.40;99.90;;;;;;5042979;28;21745;-67
2022/10/04 02:13:31;;;;;;;28.75;13.52;;;11.40;99.90;;;;;;5071049;28;20111;-67
2022/10/04 02:15:58;;;;;;;35.35;14.27;;;11.30;99.90;;;;;;5040970;28;20377;-66
2022/10/04 02:18:25;;;;;;;36.55;14.68;;;11.30;99.90;;;;;;5042083;28;20040;-67
2022/10/04 02:20:52;;;;;;;33.15;14.07;;;11.20;99.90;;;;;;5046003;28;20428;-67
2022/10/04 02:23:19;;;;;;;34.75;15.30;;;11.20;99.90;;;;;;5044278;28;20036;-67
2022/10/04 02:25:45;;;;;;;30.23;13.15;;;11.10;99.90;;;;;;5043474;28;20029;-66
2022/10/04 02:28:12;;;;;;;33.92;14.98;;;11.10;99.90;;;;;;5042702;28;20060;-66
2022/10/04 02:30:42;;;;;;;29.92;13.52;;;11.00;99.90;;;;;;5045537;28;20477;-67
2022/10/04 02:33:09;;;;;;;28.38;13.55;;;11.00;99.90;;;;;;5062086;28;20040;-67
2022/10/04 02:35:42;;;;;;;33.20;14.57;;;10.90;99.90;;;;;;5042620;28;20337;-67
2022/10/04 02:38:12;;;;;;;32.60;14.48;;;10.90;99.90;;;;;;5040216;28;20052;-67
2022/10/04 02:41:01;;;;;;;37.13;15.70;;;10.80;99.90;;;;;;5040220;28;20037;-67
2022/10/04 02:43:42;;;;;;;32.97;15.05;;;10.80;99.90;;;;;;5047763;28;20072;-67
2022/10/04 02:46:15;;;;;;;38.72;16.88;;;10.70;99.90;;;;;;5037094;28;20056;-67
2022/10/04 02:48:49;;;;;;;37.33;15.98;;;10.70;99.90;;;;;;5044987;28;20029;-67
2022/10/04 02:51:33;;;;;;;32.03;15.15;;;10.60;99.90;;;;;;5039885;28;20041;-67
2022/10/04 02:54:34;;;;;;;29.70;15.57;;;10.50;99.90;;;;;;5041345;28;20064;-66
2022/10/04 02:57:00;;;;;;;30.50;14.32;;;10.40;99.90;;;;;;5041589;28;20518;-66
2022/10/04 02:59:28;;;;;;;29.88;14.95;;;10.40;99.90;;;;;;5044393;28;20037;-66
2022/10/04 03:01:59;;;;;;;38.75;15.32;;;10.40;99.90;;;;;;5044082;28;20053;-66
2022/10/04 03:04:29;;;;;;;38.95;16.63;;;10.30;99.90;;;;;;5043618;28;20091;-66
2022/10/04 03:06:58;;;;;;;34.17;17.23;;;10.30;99.90;;;;;;5045584;28;20107;-66
2022/10/04 03:09:25;;;;;;;31.85;16.17;;;10.30;99.90;;;;;;5041713;28;20033;-66
2022/10/04 03:11:51;;;;;;;34.22;16.23;;;10.30;99.90;;;;;;5040715;28;20036;-66
2022/10/04 03:14:26;;;;;;;38.70;16.92;;;10.30;99.90;;;;;;5047655;28;20047;-66
2022/10/04 03:16:59;;;;;;;34.63;17.42;;;10.30;99.90;;;;;;5069508;28;20045;-67
2022/10/04 03:19:27;;;;;;;38.35;17.02;;;10.20;99.90;;;;;;5047734;28;20059;-66
2022/10/04 03:21:56;;;;;;;36.88;17.55;;;10.30;99.90;;;;;;5045919;28;20045;-67
2022/10/04 03:24:36;;;;;;;36.88;17.20;;;10.20;99.90;;;;;;5046677;28;20041;-66
2022/10/04 03:27:06;;;;;;;43.42;18.63;;;10.20;99.90;;;;;;5052673;28;20530;-67
2022/10/04 03:29:33;;;;;;;35.63;18.13;;;10.20;99.90;;;;;;5041769;28;20025;-67
2022/10/04 03:32:01;;;;;;;41.28;18.75;;;10.10;99.90;;;;;;5045418;28;20040;-67
2022/10/04 03:34:38;;;;;;;41.60;17.80;;;10.10;99.90;;;;;;5039045;28;20046;-67
2022/10/04 03:37:13;;;;;;;37.33;17.40;;;10.10;99.90;;;;;;5037426;28;20040;-67
2022/10/04 03:39:44;;;;;;;34.03;17.58;;;10.10;99.90;;;;;;5041347;28;20431;-67
2022/10/04 03:42:14;;;;;;;38.28;18.45;;;10.10;99.90;;;;;;5037445;28;20091;-66
2022/10/04 03:44:41;;;;;;;35.05;17.17;;;10.00;99.90;;;;;;5038067;28;20053;-66
2022/10/04 03:47:14;;;;;;;40.78;19.40;;;10.00;99.90;;;;;;5039089;28;20550;-67
2022/10/04 03:49:41;;;;;;;37.50;18.55;;;10.10;99.90;;;;;;5032111;28;20040;-67
2022/10/04 03:52:15;;;;;;;37.58;19.38;;;10.00;99.90;;;;;;5074662;28;20072;-67
2022/10/04 03:54:41;;;;;;;39.90;18.70;;;10.00;99.90;;;;;;5045351;28;20041;-67
2022/10/04 03:57:08;;;;;;;41.08;18.10;;;9.90;99.90;;;;;;5043222;28;20052;-67
2022/10/04 03:59:35;;;;;;;34.83;18.20;;;10.00;99.90;;;;;;5044617;28;20045;-67
2022/10/04 04:02:28;;;;;;;45.42;20.63;;;9.90;99.90;;;;;;5038319;28;20091;-66
2022/10/04 04:05:17;;;;;;;39.53;20.15;;;9.90;99.90;;;;;;5037173;28;20045;-67
2022/10/04 04:08:11;;;;;;;40.60;19.38;;;10.00;99.90;;;;;;5041579;28;20044;-67
2022/10/04 04:10:49;;;;;;;42.20;20.77;;;10.00;99.90;;;;;;5041237;28;20037;-68
2022/10/04 04:13:41;;;;;;;36.90;19.52;;;9.90;99.90;;;;;;5058080;28;20071;-68
2022/10/04 04:16:09;;;;;;;39.15;20.70;;;9.90;99.90;;;;;;5039698;28;20088;-68
2022/10/04 04:18:39;;;;;;;43.47;19.77;;;9.90;99.90;;;;;;5039042;28;20048;-67
2022/10/04 04:21:06;;;;;;;37.78;18.75;;;9.80;99.90;;;;;;5042622;28;20124;-67
2022/10/04 04:23:37;;;;;;;42.90;21.48;;;9.80;99.90;;;;;;5042603;28;20045;-68
2022/10/04 04:26:42;;;;;;;44.78;21.65;;;9.80;99.90;;;;;;5028635;28;20048;-67
2022/10/04 04:29:22;;;;;;;48.15;21.80;;;9.80;99.90;;;;;;5039964;28;20047;-68
2022/10/04 04:32:01;;;;;;;39.85;20.77;;;9.80;99.90;;;;;;5067937;28;20037;-68
2022/10/04 04:34:30;;;;;;;45.60;21.25;;;9.80;99.90;;;;;;5024390;28;20025;-68
2022/10/04 04:36:59;;;;;;;45.20;20.73;;;9.80;99.90;;;;;;5056660;28;20037;-68
2022/10/04 04:39:38;;;;;;;54.15;22.35;;;9.70;99.90;;;;;;5048396;28;20076;-68
2022/10/04 04:42:16;;;;;;;57.70;23.15;;;9.80;99.90;;;;;;5048000;28;20392;-68
2022/10/04 04:44:55;;;;;;;51.55;22.85;;;9.70;99.90;;;;;;5047736;28;20116;-68
2022/10/04 04:47:32;;;;;;;47.22;22.65;;;9.80;99.90;;;;;;5048534;28;20140;-68
2022/10/04 04:50:07;;;;;;;48.95;22.40;;;9.80;99.90;;;;;;5046617;28;20082;-68
2022/10/04 04:52:34;;;;;;;47.88;22.90;;;9.90;99.90;;;;;;5048455;28;20062;-68
2022/10/04 04:55:01;;;;;;;43.92;21.35;;;9.80;99.90;;;;;;5046375;28;20520;-68
2022/10/04 04:57:27;;;;;;;50.30;22.35;;;9.80;99.90;;;;;;5044360;28;20041;-68
2022/10/04 05:00:00;;;;;;;44.47;22.23;;;9.80;99.90;;;;;;5048900;28;20094;-68
2022/10/04 05:02:28;;;;;;;48.20;23.27;;;9.80;99.90;;;;;;5047590;28;20048;-68
2022/10/04 05:05:15;;;;;;;43.17;21.33;;;9.80;99.90;;;;;;5040550;28;20487;-68
2022/10/04 05:07:44;;;;;;;47.10;21.92;;;9.80;99.90;;;;;;5049574;28;20432;-68
2022/10/04 05:10:41;;;;;;;49.75;22.80;;;9.70;99.90;;;;;;5074748;28;21077;-68
2022/10/04 05:13:09;;;;;;;52.58;23.30;;;9.80;99.90;;;;;;5035082;28;20048;-68
2022/10/04 05:15:37;;;;;;;46.70;23.35;;;9.70;99.90;;;;;;5043624;28;20045;-69
2022/10/04 05:18:16;;;;;;;52.80;23.77;;;9.60;99.90;;;;;;5036889;28;20053;-68
2022/10/04 05:20:48;;;;;;;53.60;23.17;;;9.60;99.90;;;;;;5043639;28;20376;-68
2022/10/04 05:23:14;;;;;;;45.35;22.60;;;9.60;99.90;;;;;;5073363;28;20123;-68
2022/10/04 05:25:40;;;;;;;47.38;23.30;;;9.70;99.90;;;;;;5047903;28;20135;-68
2022/10/04 05:28:10;;;;;;;48.33;22.33;;;9.60;99.90;;;;;;5038308;28;20495;-69
2022/10/04 05:30:48;;;;;;;53.42;24.30;;;9.60;99.90;;;;;;5025986;28;20059;-69
2022/10/04 05:33:23;;;;;;;47.10;22.35;;;9.60;99.90;;;;;;5031797;28;20041;-69
2022/10/04 05:36:00;;;;;;;52.50;23.45;;;9.60;99.90;;;;;;5045803;28;20051;-69
2022/10/04 05:39:05;;;;;;;56.63;25.48;;;9.60;99.90;;;;;;5043407;28;20029;-68
2022/10/04 05:41:54;;;;;;;53.60;24.52;;;9.50;99.90;;;;;;5043947;28;20052;-69
2022/10/04 05:44:25;;;;;;;53.88;24.30;;;9.50;99.90;;;;;;5041955;28;20033;-68
2022/10/04 05:46:53;;;;;;;48.80;24.17;;;9.50;99.90;;;;;;5042571;28;20190;-68
2022/10/04 05:49:21;;;;;;;52.00;23.85;;;9.50;99.90;;;;;;5057471;28;20566;-69
2022/10/04 05:52:11;;;;;;;50.15;24.77;;;9.50;99.90;;;;;;5045612;28;20045;-69
2022/10/04 05:54:37;;;;;;;53.05;25.52;;;9.60;99.90;;;;;;5069747;28;20033;-69
2022/10/04 05:57:43;;;;;;;55.45;25.25;;;9.50;99.90;;;;;;5045738;28;20093;-69
2022/10/04 06:00:11;;;;;;;50.67;23.50;;;9.50;99.90;;;;;;5070191;28;20512;-69
2022/10/04 06:02:55;;;;;;;55.15;24.50;;;9.60;99.90;;;;;;5041382;28;20127;-69
2022/10/04 06:05:34;;;;;;;49.92;24.23;;;9.60;99.90;;;;;;5066983;28;20453;-69
2022/10/04 06:08:12;;;;;;;48.88;24.75;;;9.60;99.90;;;;;;5043808;28;20053;-68
2022/10/04 06:11:25;;;;;;;56.03;26.23;;;9.60;99.90;;;;;;5044355;28;20040;-68
2022/10/04 06:14:34;;;;;;;51.70;24.60;;;9.60;99.90;;;;;;5000958;28;20100;-68
2022/10/04 06:17:28;;;;;;;48.90;24.58;;;9.60;99.90;;;;;;5013989;28;20139;-68
2022/10/04 06:19:53;;;;;;;51.38;25.63;;;9.70;99.90;;;;;;5047677;28;20124;-68
2022/10/04 06:22:21;;;;;;;52.63;24.35;;;9.60;99.90;;;;;;5049031;28;20598;-69
2022/10/04 06:25:04;;;;;;;56.05;25.90;;;9.60;99.90;;;;;;5043890;28;20049;-68
2022/10/04 06:27:40;;;;;;;50.28;24.73;;;9.70;99.90;;;;;;5051902;28;20080;-68
2022/10/04 06:30:16;;;;;;;48.33;24.98;;;9.70;99.90;;;;;;5035110;28;20456;-68
2022/10/04 06:33:21;;;;;;;49.42;25.13;;;9.70;99.90;;;;;;5045166;28;20517;-68
2022/10/04 06:36:34;;;;;;;50.67;25.65;;;9.70;99.90;;;;;;5071646;28;20037;-68
2022/10/04 06:39:29;;;;;;;54.35;26.73;;;9.80;99.90;;;;;;5055926;28;20289;-68
2022/10/04 06:42:03;;;;;;;51.85;26.25;;;9.70;99.90;;;;;;5047652;28;20373;-68
2022/10/04 06:44:57;;;;;;;50.05;26.13;;;9.80;99.90;;;;;;5033394;28;20043;-68
2022/10/04 06:47:36;;;;;;;58.13;27.00;;;9.80;99.90;;;;;;5043755;28;20128;-68
2022/10/04 06:50:54;;;;;;;62.00;27.02;;;9.90;99.90;;;;;;5038046;28;20132;-68
2022/10/04 06:53:39;;;;;;;55.30;26.25;;;9.90;99.90;;;;;;4987404;28;20528;-68
2022/10/04 06:56:36;;;;;;;54.08;26.35;;;10.00;99.90;;;;;;4979132;28;20038;-68
2022/10/04 06:59:20;;;;;;;58.08;27.30;;;10.00;99.90;;;;;;5029845;28;20057;-68
2022/10/04 07:02:21;;;;;;;53.08;26.67;;;10.20;99.90;;;;;;5037879;28;20068;-68
2022/10/04 07:04:57;;;;;;;53.22;27.80;;;10.30;99.90;;;;;;5026011;28;20727;-67
2022/10/04 07:07:36;;;;;;;55.90;28.90;;;10.40;99.90;;;;;;5075910;28;20312;-68
2022/10/04 07:10:29;;;;;;;56.30;27.27;;;10.50;99.90;;;;;;5047042;28;20041;-68
2022/10/04 07:13:08;;;;;;;53.55;28.73;;;10.60;99.90;;;;;;5046690;28;20503;-67
2022/10/04 07:16:15;;;;;;;61.10;29.73;;;10.70;99.90;;;;;;5050500;28;20067;-66
2022/10/04 07:19:03;;;;;;;54.80;27.85;;;10.80;99.90;;;;;;5043958;28;20067;-66
2022/10/04 07:21:39;;;;;;;59.25;28.90;;;10.80;99.90;;;;;;5048523;28;20078;-66
2022/10/04 07:24:11;;;;;;;52.67;27.77;;;10.80;99.90;;;;;;5048430;28;20518;-65
2022/10/04 07:26:42;;;;;;;67.15;29.65;;;10.90;99.90;;;;;;5040850;28;20056;-65
2022/10/04 07:29:37;;;;;;;64.32;31.83;;;10.90;99.90;;;;;;5045750;28;20037;-65
2022/10/04 07:32:16;;;;;;;66.90;30.52;;;11.10;99.90;;;;;;5047634;28;20045;-65
2022/10/04 07:35:15;;;;;;;62.05;31.10;;;11.10;99.90;;;;;;5046621;28;20033;-64
2022/10/04 07:38:11;;;;;;;60.38;29.23;;;11.20;99.90;;;;;;5036164;28;20041;-64
2022/10/04 07:40:57;;;;;;;61.78;29.05;;;11.40;99.90;;;;;;5060658;28;20471;-65
2022/10/04 07:43:32;;;;;;;62.55;28.95;;;11.60;99.90;;;;;;5046639;28;20048;-64
2022/10/04 07:46:20;;;;;;;58.05;28.45;;;11.70;99.90;;;;;;5046951;28;20056;-64
2022/10/04 07:48:48;;;;;;;55.65;28.98;;;11.70;99.90;;;;;;5043446;28;20041;-63
2022/10/04 07:51:23;;;;;;;60.83;28.77;;;11.80;99.90;;;;;;5043487;28;20037;-64
2022/10/04 07:54:11;;;;;;;58.17;30.67;;;11.80;99.90;;;;;;5049359;28;20037;-63
2022/10/04 07:56:58;;;;;;;61.95;30.73;;;11.90;99.90;;;;;;5045954;28;20041;-63
2022/10/04 07:59:55;;;;;;;55.78;30.45;;;11.90;99.90;;;;;;5046481;28;20045;-64
2022/10/04 08:02:42;;;;;;;58.85;30.05;;;12.00;99.90;;;;;;5030544;28;20370;-63
2022/10/04 08:05:28;;;;;;;54.58;29.27;;;12.00;99.90;;;;;;5029211;28;20519;-64
2022/10/04 08:08:13;;;;;;;57.10;28.15;;;12.10;99.90;;;;;;5037923;28;20396;-63
2022/10/04 08:11:09;;;;;;;52.53;27.58;;;12.20;99.90;;;;;;5047588;28;20044;-64
2022/10/04 08:13:48;;;;;;;53.90;27.60;;;12.30;99.90;;;;;;5047468;28;20033;-64
2022/10/04 08:16:20;;;;;;;57.72;28.83;;;12.40;99.90;;;;;;5076360;28;20098;-63
2022/10/04 08:19:11;;;;;;;48.10;26.65;;;12.50;99.90;;;;;;5048451;28;20041;-63
2022/10/04 08:22:15;;;;;;;44.15;25.13;;;12.70;99.90;;;;;;5047915;28;20041;-64
2022/10/04 08:24:48;;;;;;;52.65;24.58;;;12.70;99.90;;;;;;5057375;28;20041;-64
2022/10/04 08:27:38;;;;;;;43.83;22.70;;;12.80;99.90;;;;;;5047831;28;20037;-64
2022/10/04 08:30:16;;;;;;;46.50;23.45;;;12.90;99.90;;;;;;5046959;28;20103;-64
2022/10/04 08:33:09;;;;;;;45.55;24.45;;;13.00;99.90;;;;;;5043111;28;20029;-63
2022/10/04 08:35:47;;;;;;;43.42;23.13;;;13.10;99.90;;;;;;5038205;28;20041;-64
2022/10/04 08:38:31;;;;;;;43.30;21.23;;;13.20;99.90;;;;;;5036698;28;20036;-65
2022/10/04 08:41:15;;;;;;;40.22;20.02;;;13.30;99.90;;;;;;5033109;28;20075;-64
2022/10/04 08:44:22;;;;;;;43.00;21.00;;;13.30;99.90;;;;;;5042268;28;20341;-64
2022/10/04 08:47:23;;;;;;;41.20;20.90;;;13.40;99.90;;;;;;5049373;28;20052;-64
2022/10/04 08:50:04;;;;;;;37.20;19.60;;;13.40;99.90;;;;;;5034398;28;20597;-64
2022/10/04 08:53:01;;;;;;;41.85;19.90;;;13.50;99.90;;;;;;5041366;28;20072;-64
2022/10/04 08:55:45;;;;;;;38.17;18.67;;;13.40;99.90;;;;;;5043572;28;20508;-65
2022/10/04 08:59:01;;;;;;;41.90;19.88;;;13.50;99.90;;;;;;5053531;28;20563;-64
2022/10/04 09:02:00;;;;;;;41.53;19.88;;;13.50;99.90;;;;;;5044045;28;20057;-64
2022/10/04 09:04:56;;;;;;;41.95;20.25;;;13.50;99.90;;;;;;5042137;28;20068;-64
2022/10/04 09:07:43;;;;;;;37.13;19.65;;;13.60;99.90;;;;;;5073939;28;20397;-64
2022/10/04 09:10:32;;;;;;;38.17;18.85;;;13.70;99.90;;;;;;5045767;28;20510;-64
2022/10/04 09:13:21;;;;;;;41.28;20.40;;;13.70;99.90;;;;;;5043689;28;20056;-65
2022/10/04 09:15:52;;;;;;;43.08;19.63;;;13.70;99.90;;;;;;5041989;28;20049;-64
2022/10/04 09:18:48;;;;;;;38.95;19.30;;;13.80;99.90;;;;;;5039085;28;20045;-64
2022/10/04 09:21:55;;;;;;;38.25;19.08;;;13.80;99.90;;;;;;5038650;28;20055;-65
2022/10/04 09:24:58;;;;;;;40.15;18.83;;;13.80;99.90;;;;;;5009917;28;20124;-64
2022/10/04 09:27:42;;;;;;;36.50;18.33;;;13.80;99.90;;;;;;5006769;28;20851;-64
2022/10/04 09:30:19;;;;;;;36.22;18.30;;;14.00;99.90;;;;;;5041577;28;20049;-65
2022/10/04 09:32:58;;;;;;;39.05;19.63;;;14.00;99.90;;;;;;5035056;28;20043;-66
2022/10/04 09:35:30;;;;;;;35.88;17.77;;;14.00;99.90;;;;;;5043809;28;20033;-65
2022/10/04 09:38:08;;;;;;;;;;;14.10;99.90;;;;;;5076857;28;20489;-64
2022/10/04 09:41:00;;;;;;;39.17;18.38;;;14.10;99.90;;;;;;5057244;28;19966;-65
2022/10/04 09:43:54;;;;;;;38.95;17.52;;;14.20;99.90;;;;;;5062418;28;20049;-65
2022/10/04 09:46:50;;;;;;;38.60;17.95;;;14.40;99.90;;;;;;5044751;28;20101;-65
2022/10/04 09:49:21;;;;;;;37.58;17.27;;;14.40;99.90;;;;;;5041352;28;20052;-65
2022/10/04 09:52:09;;;;;;;36.17;16.37;;;14.50;99.90;;;;;;5075505;28;20041;-65
2022/10/04 09:55:03;;;;;;;28.40;14.80;;;14.60;99.90;;;;;;5077819;28;20051;-64
2022/10/04 09:58:10;;;;;;;34.00;15.02;;;14.60;99.90;;;;;;5073563;28;21832;-65
2022/10/04 10:00:49;;;;;;;31.30;14.18;;;14.70;99.90;;;;;;5038532;28;20048;-66
2022/10/04 10:03:42;;;;;;;35.40;13.88;;;14.80;99.90;;;;;;5037835;28;20038;-66
2022/10/04 10:06:48;;;;;;;30.15;15.05;;;14.80;99.90;;;;;;5046273;28;20040;-66
2022/10/04 10:15:39;;;;;;;38.42;16.15;;;15.00;99.90;;;;;;5038742;28;20051;-65
2022/10/04 10:18:15;;;;;;;32.20;15.02;;;15.10;99.90;;;;;;5042230;28;20103;-66
2022/10/04 10:20:49;;;;;;;34.97;15.50;;;15.10;99.90;;;;;;5040616;28;20084;-66
2022/10/04 10:23:31;;;;;;;31.95;15.27;;;15.20;99.90;;;;;;5031769;28;20049;-65
2022/10/04 10:26:38;;;;;;;28.63;15.07;;;15.30;99.90;;;;;;5049876;28;20451;-65
2022/10/04 10:29:34;;;;;;;31.23;14.65;;;15.30;99.90;;;;;;5050486;28;20041;-67
2022/10/04 10:32:26;;;;;;;32.35;14.20;;;15.40;99.90;;;;;;5050077;28;20060;-66
2022/10/04 10:34:58;;;;;;;;;;;15.40;99.90;;;;;;5051987;28;20045;-67
2022/10/04 10:37:49;;;;;;;31.20;13.90;;;15.50;99.90;;;;;;5050373;28;20377;-66
2022/10/04 10:40:22;;;;;;;30.48;14.10;;;15.50;99.90;;;;;;5076822;28;20040;-66
2022/10/04 10:42:54;;;;;;;32.08;14.43;;;15.60;99.90;;;;;;5050664;28;20381;-66
2022/10/04 10:45:51;;;;;;;35.95;14.45;;;15.60;99.90;;;;;;5051741;28;20067;-66
2022/10/04 10:48:26;;;;;;;28.45;14.18;;;15.60;99.90;;;;;;5044779;28;20583;-67
2022/10/04 10:51:30;;;;;;;28.90;13.48;;;15.80;99.90;;;;;;5051320;28;20044;-65
2022/10/04 10:54:11;;;;;;;28.67;14.68;;;15.90;99.90;;;;;;4999273;28;20081;-65
2022/10/04 10:56:56;;;;;;;28.90;13.82;;;16.00;99.90;;;;;;5032058;28;20048;-66
2022/10/04 10:59:59;;;;;;;26.85;13.80;;;16.00;99.90;;;;;;5043840;28;20438;-67
2022/10/04 11:02:35;;;;;;;34.92;13.73;;;16.00;99.90;;;;;;5047358;28;20041;-66
2022/10/04 11:05:25;;;;;;;29.33;14.18;;;16.00;99.90;;;;;;5030730;28;20049;-66
2022/10/04 11:08:04;;;;;;;31.85;14.30;;;16.00;99.90;;;;;;5031886;28;20140;-67
2022/10/04 11:11:14;;;;;;;36.60;14.73;;;16.00;99.90;;;;;;5048848;28;20037;-66
2022/10/04 11:14:19;;;;;;;38.05;16.13;;;16.00;99.90;;;;;;4962276;28;20074;-67
2022/10/04 11:17:00;;;;;;;28.45;14.77;;;15.90;99.90;;;;;;5035226;28;20045;-66
2022/10/04 11:19:34;;;;;;;30.75;14.63;;;15.90;99.90;;;;;;5035535;28;20119;-66
2022/10/04 11:22:06;;;;;;;33.75;14.82;;;15.90;99.90;;;;;;5040295;28;20484;-67
2022/10/04 11:24:54;;;;;;;34.22;15.68;;;15.90;99.90;;;;;;5045458;28;20391;-65
2022/10/04 11:27:32;;;;;;;32.60;15.65;;;16.00;99.90;;;;;;5050640;28;20044;-67
2022/10/04 11:30:03;;;;;;;33.97;16.90;;;16.10;99.90;;;;;;5045407;28;20041;-66
2022/10/04 11:32:47;;;;;;;33.97;15.32;;;16.10;99.90;;;;;;5047672;28;20540;-67
2022/10/04 11:35:35;;;;;;;36.25;16.67;;;16.20;99.90;;;;;;5039487;28;20895;-65
2022/10/04 11:38:29;;;;;;;35.28;15.75;;;16.20;99.90;;;;;;5038809;28;20040;-66
2022/10/04 11:41:13;;;;;;;34.30;15.30;;;16.20;99.90;;;;;;5043341;28;20098;-65
2022/10/04 11:43:49;;;;;;;31.77;14.60;;;16.30;99.90;;;;;;5071964;28;20088;-66
2022/10/04 11:46:17;;;;;;;32.78;15.30;;;16.30;99.90;;;;;;5051178;28;20109;-67
2022/10/04 11:49:10;;;;;;;31.08;15.23;;;16.30;99.90;;;;;;5050403;28;20041;-68
2022/10/04 11:52:06;;;;;;;32.38;14.65;;;16.30;99.90;;;;;;5045930;28;20128;-66
2022/10/04 11:55:00;;;;;;;36.42;14.98;;;16.40;99.90;;;;;;5046496;28;20479;-67
2022/10/04 11:57:43;;;;;;;31.38;14.65;;;16.40;99.90;;;;;;5037812;28;20059;-66
2022/10/04 12:00:21;;;;;;;31.90;14.52;;;16.40;99.90;;;;;;5036307;28;20095;-66
2022/10/04 12:03:12;;;;;;;32.15;14.43;;;16.40;99.90;;;;;;5045491;28;20028;-67
2022/10/04 12:06:03;;;;;;;27.10;13.18;;;16.50;99.90;;;;;;5049503;28;20068;-66
2022/10/04 12:08:47;;;;;;;25.58;12.27;;;16.50;99.90;;;;;;5029810;28;20033;-67
2022/10/04 12:14:30;;;;;;;25.27;11.57;;;16.60;99.90;;;;;;5078377;28;20120;-66
2022/10/04 12:17:09;;;;;;;28.90;11.60;;;16.70;99.90;;;;;;5042114;28;20041;-66
2022/10/04 12:19:56;;;;;;;27.77;11.20;;;16.70;99.90;;;;;;5046453;28;20036;-66
2022/10/04 12:22:41;;;;;;;27.10;12.20;;;16.70;99.90;;;;;;5047263;28;20045;-66
2022/10/04 12:25:34;;;;;;;30.30;12.05;;;16.70;99.90;;;;;;5048427;28;20116;-68
2022/10/04 12:27:59;;;;;;;27.27;11.68;;;16.80;99.90;;;;;;5010326;28;20053;-67
2022/10/04 12:30:31;;;;;;;23.15;11.45;;;16.80;99.90;;;;;;5047733;28;20045;-66
2022/10/04 12:33:12;;;;;;;27.88;12.45;;;16.80;99.90;;;;;;5036975;28;20045;-66
2022/10/04 12:35:56;;;;;;;24.20;11.68;;;16.70;99.90;;;;;;5038471;28;20120;-66
2022/10/04 12:38:36;;;;;;;28.27;12.10;;;16.80;99.90;;;;;;5047925;28;20120;-66
2022/10/04 12:41:16;;;;;;;29.45;11.70;;;16.90;99.90;;;;;;5043401;28;20052;-66
2022/10/04 12:43:51;;;;;;;28.08;11.27;;;16.90;99.90;;;;;;5041829;28;20122;-66
2022/10/04 12:46:34;;;;;;;26.63;11.23;;;17.00;99.90;;;;;;5078237;28;20041;-66
2022/10/04 12:49:07;;;;;;;30.02;10.60;;;17.00;99.90;;;;;;5044411;28;20327;-66
2022/10/04 12:51:51;;;;;;;22.75;10.43;;;17.00;99.90;;;;;;5079761;28;20045;-68
2022/10/04 12:54:33;;;;;;;23.10;10.48;;;17.10;99.90;;;;;;5045433;28;20069;-67
2022/10/04 12:57:24;;;;;;;21.97;9.80;;;17.10;99.90;;;;;;5042242;28;20045;-67
2022/10/04 13:00:13;;;;;;;22.88;9.48;;;17.10;99.90;;;;;;5047870;28;20287;-66
2022/10/04 13:02:54;;;;;;;21.50;10.32;;;17.10;99.90;;;;;;5043331;28;20048;-66
2022/10/04 13:05:25;;;;;;;22.35;9.82;;;17.00;99.90;;;;;;5044143;28;20044;-67
2022/10/04 13:08:12;;;;;;;23.30;9.38;;;16.80;99.90;;;;;;5040376;28;20080;-65
2022/10/04 13:10:55;;;;;;;19.00;8.80;;;16.80;99.90;;;;;;5046902;28;20032;-67
2022/10/04 13:13:55;;;;;;;20.33;9.38;;;16.80;99.90;;;;;;5036572;28;20037;-65
2022/10/04 13:16:27;;;;;;;22.17;8.25;;;16.90;99.90;;;;;;5029745;28;20064;-67
2022/10/04 13:19:11;;;;;;;19.13;8.80;;;16.90;99.90;;;;;;5040540;28;20040;-66
2022/10/04 13:21:55;;;;;;;17.58;7.78;;;16.90;99.90;;;;;;5032608;28;20041;-69
2022/10/04 13:24:53;;;;;;;22.92;8.82;;;16.80;99.90;;;;;;5046986;28;20044;-67
2022/10/04 13:27:21;;;;;;;21.88;8.00;;;16.70;99.90;;;;;;5050779;28;20049;-68
2022/10/04 13:30:25;;;;;;;16.65;8.48;;;16.80;99.90;;;;;;5042520;28;20075;-68
2022/10/04 13:33:00;;;;;;;17.58;8.25;;;17.10;99.90;;;;;;5040196;28;20093;-69
2022/10/04 13:36:01;;;;;;;17.75;7.70;;;17.30;99.90;;;;;;5071989;28;20069;-67
2022/10/04 13:38:53;;;;;;;17.63;7.75;;;17.40;99.90;;;;;;5073671;28;20037;-67
2022/10/04 13:41:43;;;;;;;18.70;6.80;;;17.40;99.90;;;;;;5044893;28;20129;-69
2022/10/04 13:44:27;;;;;;;13.15;6.47;;;17.50;99.90;;;;;;5048239;28;20040;-67
2022/10/04 13:47:03;;;;;;;16.90;6.32;;;17.60;99.90;;;;;;5050611;28;20084;-69
2022/10/04 13:49:51;;;;;;;25.67;7.55;;;17.60;99.90;;;;;;5047575;28;20052;-66